Terminal Aerodrome Forecast
Issued by NWS

Home | Current Version | Previous Version | Text Only | Print | Product List | Glossary On
Versions: 1 2 3 4 5 6 7 8 9 10 11 12 13 14 15 16 17 18 19 20 21 22 23 24 25 26
000
FTUS44 KHGX 200133 AAA
TAFIAH
TAF AMD
KIAH 200133Z 2002/2106 14012KT P6SM FEW050 FEW250
     FM200230 17005KT P6SM SKC
     FM201000 VRB03KT P6SM FEW015
     FM201600 21004KT P6SM FEW025 SCT035
     FM202000 14007KT P6SM VCTS SCT050CB BKN250
     FM210100 16005KT P6SM SCT250=

USA.gov is the U.S. government's official web portal to all federal, state and local government web resources and services.